Frenchville, ME

2:55 PM EDT on July 27, 2016 (GMT -0400)
K1FTK | | Change Station

Elev 825 ft 47.25 °N, 68.35 °W | Updated 5 minutes ago

Scattered Clouds
Scattered Clouds
81.6 °F
Feels Like 83 °F
N
4.0
Wind Variable Wind from WSW
Gusts 4.0 mph

Today
High -- | Low -- °F
--% Chance of Precip.
Yesterday
High -- | Low -- °F
Precip. -- in
Pressure 29.82 in
Visibility 10.0 miles
Clouds Scattered Clouds 4800 ft
Heat Index 83 °F
Dew Point 64 °F
Humidity 56%
Rainfall 0.00 in
Snow Depth Not available.
5:06 AM 8:12 PM
Last Quarter, 40% visible
METAR KFVE 271853Z AUTO 24009KT 10SM SCT048 26/16 A2983 RMK AO2 SLP096 T02610156
Pressure 29.82 in
Visibility 10.0 miles
Clouds Scattered Clouds 4800 ft
Heat Index 83 °F
Dew Point 64 °F
Humidity 56%
Rainfall 0.00 in
Snow Depth Not available.
5:06 AM 8:12 PM
Last Quarter, 40% visible
METAR KFVE 271853Z AUTO 24009KT 10SM SCT048 26/16 A2983 RMK AO2 SLP096 T02610156

10-Day Weather Forecast

Almanac

Astronomy

Jul. 27, 2016 Rise Set
Actual Time
Civil Twilight
Nautical Twilight
Astronomical Twilight
Moon
Length of Visible Light
Length of Day
Tomorrow will be .
, % of the Moon is Illuminated

Today's Extremes

State Highs State Lows

Community

WunderPhotos

Upload Photos

1,927,897 photos uploaded!

WunderBlog® & News

Nearby

Air Quality

  Air Quality AQ Index Pollutant
Not available.

Snow Depth

Station Depth Elevation

Earthquake Activity

City Distance Mag. Time & Date
Minimum magnitude displayed is 2.5.

Coastal Water Temperatures

Place Temperature

Stations

Nearby Weather Stations

Station Location Temp. Windchill Dew Point Humidity Wind Precip. Elev Updated Type
                   

Watches & Warnings

There are currently no watches in effect.